Time;durP1;ratioP1;P1;durP2;ratioP2;P2;SDS_P1;SDS_P2;PMS_P1;PMS_P2;Temp;Humidity;BMP_temperature;BMP_pressure;BME280_temperature;BME280_humidity;BME280_pressure;Samples;Min_cycle;Max_cycle;Signal;HPM_P1;HPM_P2
2021/05/29 00:00:56;;;;;;;0.10;0.10;;;;;;;;;;5049385;28;20053;-83
2021/05/29 00:03:23;;;;;;;0.10;0.10;;;;;;;;;;5032551;28;20113;-83
2021/05/29 00:05:49;;;;;;;0.10;0.10;;;;;;;;;;5049126;28;20045;-83
2021/05/29 00:08:15;;;;;;;0.10;0.10;;;;;;;;;;5049025;28;20059;-82
2021/05/29 00:10:45;;;;;;;0.10;0.10;;;;;;;;;;5032535;28;20045;-83
2021/05/29 00:13:11;;;;;;;0.10;0.10;;;;;;;;;;5033622;28;20037;-83
2021/05/29 00:15:37;;;;;;;0.10;0.10;;;;;;;;;;5048792;28;20416;-84
2021/05/29 00:18:04;;;;;;;0.10;0.10;;;;;;;;;;5049055;28;20103;-83
2021/05/29 00:20:30;;;;;;;0.10;0.10;;;;;;;;;;5048877;28;20448;-84
2021/05/29 00:22:56;;;;;;;0.10;0.10;;;;;;;;;;5048970;28;20037;-84
2021/05/29 00:25:22;;;;;;;0.10;0.10;;;;;;;;;;5048852;28;20037;-83
2021/05/29 00:27:49;;;;;;;0.10;0.10;;;;;;;;;;5048705;28;20065;-84
2021/05/29 00:30:15;;;;;;;0.10;0.10;;;;;;;;;;5032062;28;20046;-83
2021/05/29 00:32:41;;;;;;;0.10;0.10;;;;;;;;;;5048613;28;20434;-84
2021/05/29 00:35:08;;;;;;;0.10;0.10;;;;;;;;;;5048792;28;20202;-83
2021/05/29 00:37:35;;;;;;;0.63;0.22;;;;;;;;;;5048448;28;20037;-83
2021/05/29 00:40:01;;;;;;;0.10;0.10;;;;;;;;;;5032253;28;20057;-84
2021/05/29 00:42:27;;;;;;;0.10;0.10;;;;;;;;;;5033122;28;20469;-83
2021/05/29 00:44:54;;;;;;;0.10;0.10;;;;;;;;;;5032956;28;20044;-83
2021/05/29 00:47:20;;;;;;;0.10;0.10;;;;;;;;;;5048233;28;20075;-83
2021/05/29 00:49:46;;;;;;;0.10;0.10;;;;;;;;;;5032935;28;20052;-83
2021/05/29 00:52:13;;;;;;;0.10;0.10;;;;;;;;;;5031795;28;20072;-84
2021/05/29 00:54:39;;;;;;;0.10;0.10;;;;;;;;;;5048217;28;20041;-84
2021/05/29 00:57:05;;;;;;;0.10;0.10;;;;;;;;;;5031439;28;20094;-84
2021/05/29 00:59:31;;;;;;;0.10;0.10;;;;;;;;;;5048303;28;20474;-84
2021/05/29 01:01:57;;;;;;;0.10;0.10;;;;;;;;;;5048142;28;20041;-84
2021/05/29 01:04:23;;;;;;;0.10;0.10;;;;;;;;;;5032713;28;20040;-83
2021/05/29 01:06:52;;;;;;;0.10;0.10;;;;;;;;;;5047707;28;20597;-83
2021/05/29 01:09:18;;;;;;;0.10;0.10;;;;;;;;;;5048044;28;20052;-84
2021/05/29 01:11:44;;;;;;;0.10;0.10;;;;;;;;;;5032545;28;20435;-84
2021/05/29 01:14:10;;;;;;;0.10;0.10;;;;;;;;;;5047839;28;20041;-83
2021/05/29 01:19:02;;;;;;;0.10;0.10;;;;;;;;;;5048003;28;20037;-83
2021/05/29 01:21:28;;;;;;;0.10;0.10;;;;;;;;;;5047879;28;20045;-83
2021/05/29 01:23:54;;;;;;;0.10;0.10;;;;;;;;;;5047712;28;20034;-83
2021/05/29 01:26:22;;;;;;;0.10;0.10;;;;;;;;;;5031245;28;20124;-83
2021/05/29 01:28:53;;;;;;;0.10;0.10;;;;;;;;;;5047540;28;20112;-83
2021/05/29 01:31:30;;;;;;;0.10;0.10;;;;;;;;;;5031060;28;20080;-83
2021/05/29 01:33:57;;;;;;;0.10;0.10;;;;;;;;;;5031147;28;20065;-83
2021/05/29 01:36:23;;;;;;;0.10;0.10;;;;;;;;;;5047488;28;20034;-82
2021/05/29 01:38:49;;;;;;;0.10;0.10;;;;;;;;;;5030853;28;20076;-82
2021/05/29 01:41:16;;;;;;;0.10;0.10;;;;;;;;;;5047491;28;20375;-83
2021/05/29 01:43:42;;;;;;;0.10;0.10;;;;;;;;;;5032129;28;20446;-84
2021/05/29 01:46:09;;;;;;;0.10;0.10;;;;;;;;;;5047413;28;20116;-84
2021/05/29 01:48:38;;;;;;;0.10;0.10;;;;;;;;;;5047351;28;20623;-83
2021/05/29 01:51:04;;;;;;;0.10;0.10;;;;;;;;;;5031160;28;20064;-83
2021/05/29 01:53:31;;;;;;;0.20;0.20;;;;;;;;;;5054014;28;20136;-81
2021/05/29 01:55:59;;;;;;;0.10;0.10;;;;;;;;;;5037456;28;20037;-83
2021/05/29 01:58:25;;;;;;;0.17;0.17;;;;;;;;;;5037356;28;20262;-83
2021/05/29 02:00:51;;;;;;;0.10;0.10;;;;;;;;;;5038669;28;20049;-83
2021/05/29 02:03:17;;;;;;;0.10;0.10;;;;;;;;;;5038560;28;20119;-83
2021/05/29 02:05:43;;;;;;;0.10;0.10;;;;;;;;;;5053859;28;20041;-83
2021/05/29 02:08:10;;;;;;;0.10;0.10;;;;;;;;;;5038534;28;20033;-84
2021/05/29 02:10:36;;;;;;;0.10;0.10;;;;;;;;;;5053769;28;20053;-83
2021/05/29 02:13:03;;;;;;;0.10;0.10;;;;;;;;;;5053953;28;20033;-83
2021/05/29 02:15:30;;;;;;;0.10;0.10;;;;;;;;;;5053828;28;20120;-83
2021/05/29 02:17:56;;;;;;;0.10;0.10;;;;;;;;;;5037411;28;20151;-81
2021/05/29 02:20:43;;;;;;;0.10;0.10;;;;;;;;;;5037289;28;20397;-83
2021/05/29 02:23:09;;;;;;;0.10;0.10;;;;;;;;;;5038506;28;20046;-83
2021/05/29 02:25:35;;;;;;;0.10;0.10;;;;;;;;;;5054055;28;20064;-83
2021/05/29 02:28:01;;;;;;;0.10;0.10;;;;;;;;;;5053636;28;20045;-83
2021/05/29 02:30:27;;;;;;;0.10;0.10;;;;;;;;;;5053659;28;20041;-81
2021/05/29 02:32:54;;;;;;;0.10;0.10;;;;;;;;;;5053791;28;20049;-83
2021/05/29 02:35:20;;;;;;;0.10;0.10;;;;;;;;;;5053612;28;20045;-82
2021/05/29 02:38:06;;;;;;;0.20;0.20;;;;;;;;;;5037591;28;20056;-82
2021/05/29 02:40:32;;;;;;;0.10;0.10;;;;;;;;;;5038224;28;20073;-82
2021/05/29 02:42:58;;;;;;;0.10;0.10;;;;;;;;;;5053668;28;20405;-83
2021/05/29 02:45:24;;;;;;;0.10;0.10;;;;;;;;;;5053716;28;20044;-83
2021/05/29 02:47:50;;;;;;;0.10;0.10;;;;;;;;;;5053410;28;20033;-83
2021/05/29 02:50:16;;;;;;;0.10;0.10;;;;;;;;;;5053526;28;20112;-83
2021/05/29 02:52:42;;;;;;;0.10;0.10;;;;;;;;;;5036959;28;20460;-83
2021/05/29 02:55:14;;;;;;;0.10;0.10;;;;;;;;;;5053669;28;20068;-81
2021/05/29 02:57:40;;;;;;;0.10;0.10;;;;;;;;;;5052732;28;20041;-83
2021/05/29 03:00:07;;;;;;;0.52;0.30;;;;;;;;;;5053728;28;20041;-83
2021/05/29 03:02:33;;;;;;;0.10;0.10;;;;;;;;;;5037947;28;20038;-83
2021/05/29 03:04:59;;;;;;;0.20;0.20;;;;;;;;;;5049269;28;20059;-83
2021/05/29 03:07:25;;;;;;;0.10;0.10;;;;;;;;;;5050293;28;20051;-82
2021/05/29 03:09:51;;;;;;;0.10;0.10;;;;;;;;;;5034858;28;20155;-83
2021/05/29 03:12:17;;;;;;;0.10;0.10;;;;;;;;;;5050150;28;20048;-83
2021/05/29 03:14:43;;;;;;;0.10;0.10;;;;;;;;;;5050248;28;20045;-83
2021/05/29 03:17:10;;;;;;;0.10;0.10;;;;;;;;;;5050079;28;20494;-83
2021/05/29 03:19:36;;;;;;;0.10;0.10;;;;;;;;;;5034801;28;20055;-83
2021/05/29 03:22:02;;;;;;;0.10;0.10;;;;;;;;;;5034612;28;20112;-83
2021/05/29 03:24:28;;;;;;;0.10;0.10;;;;;;;;;;5049919;28;20473;-83
2021/05/29 03:26:54;;;;;;;0.10;0.10;;;;;;;;;;5033352;28;20041;-82
2021/05/29 03:29:20;;;;;;;0.10;0.10;;;;;;;;;;5034408;28;20050;-83
2021/05/29 03:31:46;;;;;;;0.10;0.10;;;;;;;;;;5049702;28;20095;-83
2021/05/29 03:34:13;;;;;;;0.10;0.10;;;;;;;;;;5033324;28;20045;-83
2021/05/29 03:36:39;;;;;;;0.10;0.10;;;;;;;;;;5049850;28;20405;-84
2021/05/29 03:39:05;;;;;;;0.20;0.20;;;;;;;;;;5049585;28;20057;-83
2021/05/29 03:41:31;;;;;;;0.10;0.10;;;;;;;;;;5049623;28;20041;-82
2021/05/29 03:43:57;;;;;;;0.10;0.10;;;;;;;;;;5049597;28;20044;-83
2021/05/29 03:46:23;;;;;;;0.10;0.10;;;;;;;;;;5049535;28;20042;-83
2021/05/29 03:48:49;;;;;;;0.10;0.10;;;;;;;;;;5034136;28;20043;-83
2021/05/29 03:51:15;;;;;;;0.20;0.20;;;;;;;;;;5049393;28;20500;-83
2021/05/29 03:53:41;;;;;;;0.10;0.10;;;;;;;;;;5033042;28;20037;-83
2021/05/29 03:56:07;;;;;;;0.10;0.10;;;;;;;;;;5032969;28;20037;-83
2021/05/29 03:58:33;;;;;;;0.10;0.10;;;;;;;;;;5033894;28;20041;-83
2021/05/29 04:01:00;;;;;;;0.10;0.10;;;;;;;;;;5049277;28;20132;-83
2021/05/29 04:03:26;;;;;;;0.10;0.10;;;;;;;;;;5033800;28;20034;-83
2021/05/29 04:05:52;;;;;;;0.10;0.10;;;;;;;;;;5049129;28;20473;-83
2021/05/29 04:08:18;;;;;;;0.10;0.10;;;;;;;;;;5033645;28;20096;-83
2021/05/29 04:10:44;;;;;;;0.10;0.10;;;;;;;;;;5032353;28;20045;-83
2021/05/29 04:13:10;;;;;;;0.10;0.10;;;;;;;;;;5033752;28;20477;-82
2021/05/29 04:15:36;;;;;;;0.10;0.10;;;;;;;;;;5033580;28;20041;-83
2021/05/29 04:18:02;;;;;;;0.13;0.13;;;;;;;;;;5048828;28;20038;-83
2021/05/29 04:20:28;;;;;;;0.10;0.10;;;;;;;;;;5033534;28;20049;-83
2021/05/29 04:22:55;;;;;;;0.10;0.10;;;;;;;;;;5033467;28;20444;-83
2021/05/29 04:25:22;;;;;;;0.10;0.10;;;;;;;;;;5032273;28;20030;-82
2021/05/29 04:27:48;;;;;;;0.10;0.10;;;;;;;;;;5033174;28;20045;-81
2021/05/29 04:30:15;;;;;;;0.43;0.43;;;;;;;;;;5033238;28;20443;-82
2021/05/29 04:32:41;;;;;;;0.10;0.10;;;;;;;;;;5048924;28;20497;-83
2021/05/29 04:35:08;;;;;;;0.10;0.10;;;;;;;;;;5033217;28;20520;-83
2021/05/29 04:37:34;;;;;;;0.10;0.10;;;;;;;;;;5031904;28;20425;-83
2021/05/29 04:40:00;;;;;;;0.10;0.10;;;;;;;;;;5032930;28;20046;-83
2021/05/29 04:42:26;;;;;;;0.10;0.10;;;;;;;;;;5048405;28;20042;-83
2021/05/29 04:44:53;;;;;;;0.10;0.10;;;;;;;;;;5048268;28;20036;-83
2021/05/29 04:47:19;;;;;;;0.55;0.30;;;;;;;;;;5048401;28;20057;-83
2021/05/29 04:49:45;;;;;;;0.10;0.10;;;;;;;;;;5031812;28;20485;-83
2021/05/29 04:52:11;;;;;;;0.10;0.10;;;;;;;;;;5033030;28;20042;-83
2021/05/29 04:54:39;;;;;;;0.10;0.10;;;;;;;;;;5032944;28;20041;-83
2021/05/29 04:57:05;;;;;;;0.10;0.10;;;;;;;;;;5031493;28;20045;-83
2021/05/29 04:59:31;;;;;;;0.10;0.10;;;;;;;;;;5032731;28;20045;-83
2021/05/29 05:01:57;;;;;;;0.20;0.20;;;;;;;;;;5048143;28;20045;-83
2021/05/29 05:04:23;;;;;;;0.20;0.20;;;;;;;;;;5031536;28;20033;-83
2021/05/29 05:06:49;;;;;;;0.10;0.10;;;;;;;;;;5047926;28;20034;-83
2021/05/29 05:09:15;;;;;;;0.30;0.30;;;;;;;;;;5032636;28;20121;-83
2021/05/29 05:11:41;;;;;;;0.10;0.10;;;;;;;;;;5047955;28;20046;-83
2021/05/29 05:14:07;;;;;;;0.10;0.10;;;;;;;;;;5031238;28;20556;-84
2021/05/29 05:16:33;;;;;;;0.10;0.10;;;;;;;;;;5047808;28;20047;-83
2021/05/29 05:18:59;;;;;;;0.10;0.10;;;;;;;;;;5047788;28;20478;-83
2021/05/29 05:21:25;;;;;;;0.10;0.10;;;;;;;;;;5031168;28;20042;-83
2021/05/29 05:23:54;;;;;;;0.10;0.10;;;;;;;;;;5047722;28;20037;-83
2021/05/29 05:26:20;;;;;;;0.10;0.10;;;;;;;;;;5030443;28;20098;-83
2021/05/29 05:28:46;;;;;;;0.10;0.10;;;;;;;;;;5047841;28;20065;-83
2021/05/29 05:31:12;;;;;;;0.20;0.20;;;;;;;;;;5032551;28;20076;-82
2021/05/29 05:33:41;;;;;;;0.20;0.20;;;;;;;;;;5047715;28;20038;-83
2021/05/29 05:36:09;;;;;;;0.10;0.10;;;;;;;;;;5031285;28;20478;-83
2021/05/29 05:38:36;;;;;;;0.10;0.10;;;;;;;;;;5032100;28;20069;-83
2021/05/29 05:41:02;;;;;;;0.20;0.20;;;;;;;;;;5047460;28;20033;-83
2021/05/29 05:43:28;;;;;;;0.10;0.10;;;;;;;;;;5032298;28;20033;-82
2021/05/29 05:45:55;;;;;;;0.10;0.10;;;;;;;;;;5032494;28;20037;-82
2021/05/29 05:48:21;;;;;;;0.10;0.10;;;;;;;;;;5032116;28;20120;-83
2021/05/29 05:50:56;;;;;;;0.10;0.10;;;;;;;;;;5031069;28;20116;-83
2021/05/29 05:53:23;;;;;;;0.20;0.20;;;;;;;;;;5031035;28;20037;-83
2021/05/29 05:56:02;;;;;;;0.15;0.15;;;;;;;;;;5048154;28;20045;-85
2021/05/29 05:58:28;;;;;;;0.10;0.10;;;;;;;;;;5046815;28;20042;-84
2021/05/29 06:00:54;;;;;;;0.10;0.10;;;;;;;;;;5047408;28;20041;-82
2021/05/29 06:03:21;;;;;;;0.10;0.10;;;;;;;;;;5030740;28;20052;-82
2021/05/29 06:05:47;;;;;;;0.15;0.15;;;;;;;;;;5047521;28;20076;-83
2021/05/29 06:08:13;;;;;;;0.10;0.10;;;;;;;;;;5047437;28;20038;-84
2021/05/29 06:10:39;;;;;;;0.10;0.10;;;;;;;;;;5031976;28;20049;-86
2021/05/29 06:13:08;;;;;;;0.10;0.10;;;;;;;;;;5047205;28;20045;-86
2021/05/29 06:20:48;;;;;;;0.10;0.10;;;;;;;;;;5047328;28;20107;-87
2021/05/29 06:23:14;;;;;;;0.20;0.20;;;;;;;;;;5030758;28;20068;-87
2021/05/29 06:25:41;;;;;;;0.20;0.20;;;;;;;;;;5031817;28;20240;-87
2021/05/29 06:28:07;;;;;;;0.10;0.10;;;;;;;;;;5047145;28;20038;-87
2021/05/29 06:30:33;;;;;;;0.10;0.10;;;;;;;;;;5031936;28;20393;-87
2021/05/29 06:33:03;;;;;;;0.20;0.20;;;;;;;;;;5046699;28;20037;-86
2021/05/29 06:35:29;;;;;;;0.15;0.15;;;;;;;;;;5047051;28;20043;-85
2021/05/29 06:37:56;;;;;;;0.20;0.20;;;;;;;;;;5046871;28;20080;-83
2021/05/29 06:40:22;;;;;;;0.17;0.17;;;;;;;;;;5034872;28;20049;-84
2021/05/29 06:42:49;;;;;;;0.10;0.10;;;;;;;;;;5051102;28;20136;-87
2021/05/29 06:45:15;;;;;;;0.10;0.10;;;;;;;;;;5034299;28;20517;-86
2021/05/29 06:47:42;;;;;;;0.10;0.10;;;;;;;;;;5035353;28;20643;-87
2021/05/29 06:50:08;;;;;;;0.10;0.10;;;;;;;;;;5033867;28;20123;-87
2021/05/29 06:52:36;;;;;;;0.10;0.10;;;;;;;;;;5050764;28;20459;-87
2021/05/29 07:00:31;;;;;;;0.10;0.10;;;;;;;;;;5048106;28;20046;-84
2021/05/29 07:02:57;;;;;;;0.15;0.15;;;;;;;;;;5034072;28;20068;-83
2021/05/29 07:05:23;;;;;;;0.10;0.10;;;;;;;;;;5033955;28;20481;-83
2021/05/29 07:07:49;;;;;;;0.10;0.10;;;;;;;;;;5034031;28;20037;-83
2021/05/29 07:10:15;;;;;;;0.32;0.32;;;;;;;;;;5050080;28;20044;-84
2021/05/29 07:12:41;;;;;;;0.10;0.10;;;;;;;;;;5050290;28;20041;-83
2021/05/29 07:15:08;;;;;;;0.10;0.10;;;;;;;;;;5033638;28;20037;-82
2021/05/29 07:17:39;;;;;;;0.20;0.20;;;;;;;;;;5050011;28;20456;-84
2021/05/29 07:20:05;;;;;;;0.10;0.10;;;;;;;;;;5049535;28;20045;-83
2021/05/29 07:22:31;;;;;;;0.30;0.30;;;;;;;;;;5034709;28;20064;-83
2021/05/29 07:24:57;;;;;;;0.30;0.30;;;;;;;;;;5049914;28;20041;-85
2021/05/29 07:27:23;;;;;;;0.20;0.20;;;;;;;;;;5050061;28;20444;-83
2021/05/29 07:29:49;;;;;;;0.20;0.20;;;;;;;;;;5034767;28;20060;-89
2021/05/29 07:32:15;;;;;;;0.10;0.10;;;;;;;;;;5033539;28;20420;-87
2021/05/29 07:34:41;;;;;;;0.20;0.20;;;;;;;;;;5016781;28;20120;-87
2021/05/29 07:37:08;;;;;;;0.68;0.40;;;;;;;;;;5033253;28;20481;-87
2021/05/29 07:39:35;;;;;;;0.20;0.20;;;;;;;;;;5049322;28;20065;-86
2021/05/29 07:42:02;;;;;;;1.55;0.30;;;;;;;;;;5033414;28;20049;-87
2021/05/29 07:44:28;;;;;;;0.22;0.22;;;;;;;;;;5049710;28;20044;-86
2021/05/29 07:46:54;;;;;;;0.30;0.30;;;;;;;;;;5049825;28;20044;-86
2021/05/29 07:49:20;;;;;;;1.00;0.20;;;;;;;;;;5033614;28;20037;-86
2021/05/29 07:51:46;;;;;;;0.20;0.20;;;;;;;;;;5049633;28;20038;-87
2021/05/29 07:54:13;;;;;;;0.10;0.10;;;;;;;;;;5049362;28;20208;-86
2021/05/29 07:56:39;;;;;;;0.10;0.10;;;;;;;;;;5049157;28;20037;-86
2021/05/29 07:59:17;;;;;;;0.10;0.10;;;;;;;;;;5049491;28;20049;-87
2021/05/29 08:01:43;;;;;;;0.10;0.10;;;;;;;;;;5030299;28;20034;-85
2021/05/29 08:04:09;;;;;;;0.10;0.10;;;;;;;;;;5019275;28;20060;-85
2021/05/29 08:06:36;;;;;;;0.10;0.10;;;;;;;;;;5028489;28;20382;-86
2021/05/29 08:09:05;;;;;;;0.20;0.20;;;;;;;;;;5012906;28;20038;-86
2021/05/29 08:11:31;;;;;;;0.10;0.10;;;;;;;;;;5010475;28;20401;-86
2021/05/29 08:13:58;;;;;;;0.38;0.38;;;;;;;;;;5032022;28;20154;-93
2021/05/29 08:16:24;;;;;;;0.10;0.10;;;;;;;;;;5032630;28;20099;-86
2021/05/29 08:18:50;;;;;;;0.10;0.10;;;;;;;;;;5032374;28;20037;-86
2021/05/29 08:21:16;;;;;;;0.10;0.10;;;;;;;;;;5048728;28;20615;-86
2021/05/29 08:23:42;;;;;;;0.10;0.10;;;;;;;;;;5032405;28;20473;-87
2021/05/29 08:26:08;;;;;;;0.10;0.10;;;;;;;;;;5048845;28;20033;-87
2021/05/29 08:28:35;;;;;;;0.17;0.17;;;;;;;;;;5032327;28;20044;-87
2021/05/29 08:31:01;;;;;;;1.05;0.98;;;;;;;;;;5048680;28;20116;-88
2021/05/29 08:33:27;;;;;;;0.30;0.30;;;;;;;;;;5048843;28;20033;-86
2021/05/29 08:35:53;;;;;;;0.40;0.30;;;;;;;;;;5033360;28;20041;-87
2021/05/29 08:38:19;;;;;;;0.10;0.10;;;;;;;;;;5048424;28;20048;-85
2021/05/29 08:40:46;;;;;;;0.10;0.10;;;;;;;;;;5048396;28;20045;-85
2021/05/29 08:43:12;;;;;;;0.45;0.22;;;;;;;;;;5031822;28;20432;-86
2021/05/29 08:45:39;;;;;;;0.10;0.10;;;;;;;;;;5048390;28;20108;-85
2021/05/29 08:48:05;;;;;;;0.10;0.10;;;;;;;;;;5032222;28;20539;-85
2021/05/29 08:50:31;;;;;;;0.20;0.20;;;;;;;;;;5032852;28;20469;-86
2021/05/29 08:52:57;;;;;;;0.20;0.20;;;;;;;;;;5033149;28;20072;-86
2021/05/29 08:55:23;;;;;;;0.10;0.10;;;;;;;;;;5048173;28;20038;-86
2021/05/29 08:57:50;;;;;;;0.10;0.10;;;;;;;;;;5031567;28;20043;-86
2021/05/29 09:00:17;;;;;;;0.10;0.10;;;;;;;;;;5048204;28;20049;-85
2021/05/29 09:02:58;;;;;;;0.20;0.20;;;;;;;;;;5030896;28;20049;-85
2021/05/29 09:05:34;;;;;;;0.30;0.30;;;;;;;;;;5032885;28;20637;-86
2021/05/29 09:08:04;;;;;;;0.20;0.20;;;;;;;;;;5032593;28;20037;-85
2021/05/29 09:10:30;;;;;;;0.10;0.10;;;;;;;;;;5047968;28;20040;-86
2021/05/29 09:13:12;;;;;;;0.10;0.10;;;;;;;;;;5048209;28;20401;-86
2021/05/29 09:15:49;;;;;;;0.20;0.20;;;;;;;;;;5048056;28;20477;-85
2021/05/29 09:18:28;;;;;;;0.20;0.20;;;;;;;;;;5032486;28;20041;-86
2021/05/29 09:20:54;;;;;;;0.10;0.10;;;;;;;;;;5032620;28;20181;-85
2021/05/29 09:23:20;;;;;;;0.13;0.13;;;;;;;;;;5047819;28;20285;-86
2021/05/29 09:25:58;;;;;;;0.10;0.10;;;;;;;;;;5047716;28;20622;-86
2021/05/29 09:28:25;;;;;;;0.20;0.20;;;;;;;;;;5047459;28;20041;-86
2021/05/29 09:30:51;;;;;;;0.20;0.20;;;;;;;;;;5047646;28;20088;-86
2021/05/29 09:33:18;;;;;;;0.20;0.20;;;;;;;;;;5047599;28;20072;-85
2021/05/29 09:35:49;;;;;;;0.10;0.10;;;;;;;;;;5047739;28;20508;-86
2021/05/29 09:38:15;;;;;;;0.20;0.20;;;;;;;;;;5047252;28;20041;-86
2021/05/29 09:40:51;;;;;;;0.20;0.20;;;;;;;;;;5047608;28;20049;-86
2021/05/29 09:43:18;;;;;;;0.10;0.10;;;;;;;;;;5031110;28;20042;-86
2021/05/29 09:45:44;;;;;;;0.10;0.10;;;;;;;;;;5047633;28;20046;-86
2021/05/29 09:48:10;;;;;;;0.65;0.65;;;;;;;;;;5047486;28;20060;-85
2021/05/29 09:50:37;;;;;;;0.20;0.20;;;;;;;;;;5030683;28;20053;-85
2021/05/29 09:53:03;;;;;;;0.10;0.10;;;;;;;;;;5047320;28;20465;-86
2021/05/29 09:55:38;;;;;;;0.15;0.15;;;;;;;;;;5047606;28;20033;-85
2021/05/29 09:58:04;;;;;;;0.10;0.10;;;;;;;;;;5032209;28;20033;-86
2021/05/29 10:00:40;;;;;;;0.20;0.20;;;;;;;;;;5030939;28;20124;-86
2021/05/29 10:03:06;;;;;;;0.20;0.20;;;;;;;;;;5031969;28;20515;-86
2021/05/29 10:05:33;;;;;;;0.30;0.30;;;;;;;;;;5047219;28;20034;-86
2021/05/29 10:07:59;;;;;;;0.10;0.10;;;;;;;;;;5047353;28;20044;-86
2021/05/29 10:10:26;;;;;;;0.38;0.30;;;;;;;;;;5030593;28;20049;-86
2021/05/29 10:12:52;;;;;;;0.10;0.10;;;;;;;;;;5048352;28;20072;-86
2021/05/29 10:15:18;;;;;;;0.20;0.20;;;;;;;;;;5034767;28;20104;-86
2021/05/29 10:17:47;;;;;;;0.20;0.20;;;;;;;;;;5034585;28;20135;-86
2021/05/29 10:20:13;;;;;;;0.10;0.10;;;;;;;;;;5034653;28;20064;-86
2021/05/29 10:22:40;;;;;;;0.10;0.10;;;;;;;;;;5034967;28;20041;-86
2021/05/29 10:25:12;;;;;;;0.10;0.10;;;;;;;;;;5051112;28;20042;-86
2021/05/29 10:27:38;;;;;;;0.10;0.10;;;;;;;;;;5050780;28;20038;-87
2021/05/29 10:30:04;;;;;;;0.15;0.15;;;;;;;;;;5051080;28;20052;-87
2021/05/29 10:32:31;;;;;;;0.20;0.20;;;;;;;;;;5018290;28;20101;-85
2021/05/29 10:34:59;;;;;;;0.10;0.10;;;;;;;;;;5034663;28;20038;-86
2021/05/29 10:37:29;;;;;;;0.10;0.10;;;;;;;;;;5050666;28;20492;-86
2021/05/29 10:40:11;;;;;;;0.10;0.10;;;;;;;;;;5050827;28;20066;-87
2021/05/29 10:42:37;;;;;;;0.10;0.10;;;;;;;;;;5034496;28;20084;-86
2021/05/29 10:45:21;;;;;;;0.10;0.10;;;;;;;;;;5034141;28;20292;-85
2021/05/29 10:48:23;;;;;;;0.20;0.20;;;;;;;;;;5034189;28;20400;-86
2021/05/29 10:50:56;;;;;;;0.10;0.10;;;;;;;;;;4955062;29;20451;-86
2021/05/29 10:53:41;;;;;;;0.10;0.10;;;;;;;;;;5019369;28;20503;-86
2021/05/29 10:56:16;;;;;;;0.10;0.10;;;;;;;;;;5035206;28;20033;-86
2021/05/29 10:59:00;;;;;;;0.20;0.20;;;;;;;;;;5035161;28;20045;-86
2021/05/29 11:01:37;;;;;;;0.20;0.20;;;;;;;;;;5033929;28;20073;-86
2021/05/29 11:04:29;;;;;;;0.10;0.10;;;;;;;;;;5035459;28;20041;-86
2021/05/29 11:06:55;;;;;;;0.20;0.20;;;;;;;;;;5029603;28;20068;-86
2021/05/29 11:09:32;;;;;;;0.10;0.10;;;;;;;;;;5034934;28;20508;-86
2021/05/29 11:12:16;;;;;;;0.10;0.10;;;;;;;;;;5035041;28;20477;-86
2021/05/29 11:14:52;;;;;;;0.10;0.10;;;;;;;;;;5050186;28;20048;-87
2021/05/29 11:17:21;;;;;;;0.15;0.15;;;;;;;;;;5033660;28;20164;-87
2021/05/29 11:20:21;;;;;;;0.30;0.30;;;;;;;;;;5034779;28;20060;-87
2021/05/29 11:22:49;;;;;;;0.10;0.10;;;;;;;;;;4981594;28;20053;-86
2021/05/29 11:25:16;;;;;;;0.10;0.10;;;;;;;;;;5049240;28;20041;-86
2021/05/29 11:27:42;;;;;;;0.10;0.10;;;;;;;;;;5050032;28;20493;-86
2021/05/29 11:30:12;;;;;;;0.20;0.20;;;;;;;;;;5033659;28;20404;-86
2021/05/29 11:35:34;;;;;;;0.10;0.10;;;;;;;;;;5034673;28;20059;-86
2021/05/29 11:38:20;;;;;;;0.10;0.10;;;;;;;;;;5049721;28;20034;-87
2021/05/29 11:40:54;;;;;;;1.55;0.50;;;;;;;;;;5034545;28;20048;-86
2021/05/29 11:43:22;;;;;;;0.20;0.20;;;;;;;;;;5049477;28;20037;-87
2021/05/29 11:46:00;;;;;;;0.10;0.10;;;;;;;;;;5049559;28;20046;-87
2021/05/29 11:48:30;;;;;;;0.10;0.10;;;;;;;;;;5049282;28;20041;-87
2021/05/29 11:51:12;;;;;;;0.10;0.10;;;;;;;;;;5049138;28;20042;-85
2021/05/29 11:53:41;;;;;;;0.20;0.20;;;;;;;;;;5048067;28;20465;-86
2021/05/29 11:56:07;;;;;;;0.10;0.10;;;;;;;;;;5034095;28;20033;-87
2021/05/29 11:58:40;;;;;;;0.20;0.20;;;;;;;;;;5033135;28;20034;-85
2021/05/29 12:01:06;;;;;;;0.20;0.20;;;;;;;;;;5049679;28;20056;-86
2021/05/29 12:03:36;;;;;;;0.10;0.10;;;;;;;;;;5049351;28;20041;-87
2021/05/29 12:06:02;;;;;;;0.10;0.10;;;;;;;;;;5034030;28;20029;-87
2021/05/29 12:08:28;;;;;;;0.10;0.10;;;;;;;;;;5049216;28;20065;-86
2021/05/29 12:10:54;;;;;;;0.10;0.10;;;;;;;;;;5049272;28;20042;-85
2021/05/29 12:13:24;;;;;;;0.10;0.10;;;;;;;;;;5033894;28;20042;-86
2021/05/29 12:16:08;;;;;;;0.15;0.15;;;;;;;;;;5049028;28;20493;-87
2021/05/29 12:18:37;;;;;;;0.10;0.10;;;;;;;;;;5033817;28;20374;-86
2021/05/29 12:21:06;;;;;;;0.10;0.10;;;;;;;;;;5049325;28;20038;-87
2021/05/29 12:23:32;;;;;;;0.10;0.10;;;;;;;;;;5048737;28;20037;-86
2021/05/29 12:25:57;;;;;;;0.30;0.30;;;;;;;;;;5049015;28;20413;-86
2021/05/29 12:28:23;;;;;;;0.10;0.10;;;;;;;;;;5048804;28;20041;-87
2021/05/29 12:30:53;;;;;;;0.38;0.28;;;;;;;;;;5048682;28;20033;-87
2021/05/29 12:33:23;;;;;;;0.40;0.40;;;;;;;;;;5048587;28;20041;-87
2021/05/29 12:35:49;;;;;;;0.22;0.22;;;;;;;;;;5032093;28;20044;-86
2021/05/29 12:38:16;;;;;;;0.10;0.10;;;;;;;;;;5048521;28;20041;-86
2021/05/29 12:40:54;;;;;;;0.20;0.20;;;;;;;;;;5048710;28;20134;-86
2021/05/29 12:43:20;;;;;;;0.32;0.32;;;;;;;;;;5033394;28;20040;-86
2021/05/29 12:45:46;;;;;;;0.52;0.45;;;;;;;;;;5032255;28;20473;-86
2021/05/29 12:48:13;;;;;;;0.10;0.10;;;;;;;;;;5032019;28;20045;-86
2021/05/29 12:51:00;;;;;;;1.35;0.50;;;;;;;;;;5048713;28;20389;-86
2021/05/29 12:53:29;;;;;;;0.30;0.30;;;;;;;;;;5033202;28;20080;-86
2021/05/29 12:56:09;;;;;;;0.85;0.80;;;;;;;;;;5032020;28;20428;-86
2021/05/29 12:58:35;;;;;;;0.20;0.20;;;;;;;;;;5048363;28;20551;-87
2021/05/29 13:09:33;;;;;;;0.10;0.10;;;;;;;;;;5032841;28;20048;-87
2021/05/29 13:12:08;;;;;;;0.20;0.20;;;;;;;;;;5044917;28;20057;-87
2021/05/29 13:14:34;;;;;;;0.20;0.20;;;;;;;;;;5048023;28;20131;-87
2021/05/29 13:17:02;;;;;;;0.20;0.20;;;;;;;;;;5047691;28;20033;-87
2021/05/29 13:19:50;;;;;;;0.13;0.13;;;;;;;;;;5047550;28;20034;-86
2021/05/29 13:22:20;;;;;;;0.10;0.10;;;;;;;;;;5047434;28;20052;-86
2021/05/29 13:24:49;;;;;;;0.10;0.10;;;;;;;;;;5047741;28;20061;-86
2021/05/29 13:27:16;;;;;;;0.20;0.20;;;;;;;;;;5032379;28;20033;-86
2021/05/29 13:29:42;;;;;;;0.10;0.10;;;;;;;;;;5047479;28;20091;-86
2021/05/29 13:32:10;;;;;;;0.85;0.50;;;;;;;;;;5031450;28;20041;-86
2021/05/29 13:34:36;;;;;;;0.10;0.10;;;;;;;;;;5031258;28;20045;-86
2021/05/29 13:37:02;;;;;;;0.20;0.20;;;;;;;;;;5047699;28;20469;-86
2021/05/29 13:39:28;;;;;;;0.10;0.10;;;;;;;;;;5047504;28;20547;-86
2021/05/29 13:41:55;;;;;;;0.20;0.20;;;;;;;;;;5032154;28;20049;-86
2021/05/29 13:44:21;;;;;;;0.65;0.63;;;;;;;;;;5032214;28;20108;-85
2021/05/29 13:46:47;;;;;;;0.10;0.10;;;;;;;;;;5047474;28;20175;-86
2021/05/29 13:49:14;;;;;;;1.85;0.20;;;;;;;;;;5047011;28;20095;-85
2021/05/29 13:51:44;;;;;;;0.30;0.30;;;;;;;;;;5032160;28;20038;-85
2021/05/29 13:54:10;;;;;;;0.20;0.20;;;;;;;;;;5031096;28;20450;-85
2021/05/29 13:56:36;;;;;;;0.10;0.10;;;;;;;;;;5031883;28;20044;-86
2021/05/29 13:59:03;;;;;;;0.20;0.20;;;;;;;;;;5047349;28;20049;-86
2021/05/29 14:01:29;;;;;;;0.52;0.52;;;;;;;;;;5032156;28;20119;-86
2021/05/29 14:03:56;;;;;;;0.40;0.40;;;;;;;;;;5047187;28;20404;-86
2021/05/29 14:06:22;;;;;;;0.10;0.10;;;;;;;;;;5047337;28;20041;-86
2021/05/29 14:08:48;;;;;;;0.20;0.20;;;;;;;;;;5047490;28;20037;-86
2021/05/29 14:11:24;;;;;;;0.10;0.10;;;;;;;;;;5047153;28;20195;-87
2021/05/29 14:13:51;;;;;;;0.10;0.10;;;;;;;;;;5030708;28;20052;-87
2021/05/29 14:16:17;;;;;;;0.20;0.20;;;;;;;;;;5047406;28;20496;-86
2021/05/29 14:18:46;;;;;;;0.10;0.10;;;;;;;;;;5047513;28;20057;-87
2021/05/29 14:21:12;;;;;;;0.10;0.10;;;;;;;;;;5031917;28;20429;-86
2021/05/29 14:23:38;;;;;;;0.10;0.10;;;;;;;;;;5031665;28;20041;-87
2021/05/29 14:26:04;;;;;;;0.10;0.10;;;;;;;;;;5031786;28;20046;-87
2021/05/29 14:28:30;;;;;;;0.20;0.20;;;;;;;;;;5047140;28;20041;-87
2021/05/29 14:30:57;;;;;;;0.10;0.10;;;;;;;;;;5030296;28;20045;-87
2021/05/29 14:33:23;;;;;;;0.10;0.10;;;;;;;;;;5030496;28;20064;-86
2021/05/29 14:35:49;;;;;;;0.20;0.20;;;;;;;;;;5030636;28;20034;-87
2021/05/29 14:38:15;;;;;;;0.10;0.10;;;;;;;;;;5030152;28;20064;-86
2021/05/29 14:40:41;;;;;;;0.10;0.10;;;;;;;;;;5030602;28;20137;-86
2021/05/29 14:43:08;;;;;;;0.20;0.20;;;;;;;;;;5046868;28;20044;-86
2021/05/29 14:45:33;;;;;;;0.30;0.30;;;;;;;;;;5031635;28;20065;-87
2021/05/29 14:48:00;;;;;;;0.30;0.20;;;;;;;;;;5047103;28;20433;-86
2021/05/29 14:50:27;;;;;;;0.20;0.20;;;;;;;;;;5030325;28;20092;-85
2021/05/29 14:52:53;;;;;;;0.25;0.25;;;;;;;;;;5046898;28;20041;-86
2021/05/29 14:55:19;;;;;;;0.10;0.10;;;;;;;;;;5031534;28;20041;-87
2021/05/29 14:57:45;;;;;;;0.20;0.20;;;;;;;;;;5031656;28;20046;-86
2021/05/29 15:00:11;;;;;;;0.20;0.20;;;;;;;;;;5048347;28;20091;-87
2021/05/29 15:02:41;;;;;;;0.20;0.20;;;;;;;;;;5033817;28;20404;-86
2021/05/29 15:05:07;;;;;;;0.30;0.30;;;;;;;;;;5034032;28;20069;-87
2021/05/29 15:07:33;;;;;;;0.10;0.10;;;;;;;;;;5033497;28;20045;-86
2021/05/29 15:10:00;;;;;;;0.20;0.20;;;;;;;;;;5050284;28;20045;-86
2021/05/29 15:12:26;;;;;;;0.10;0.10;;;;;;;;;;5034924;28;20213;-86